NZOH/OHA METAR and TAF weather

Enter ICAO airport designator
Station Type Date Time Source
NZOH METAR 2020/09/15 04:00 UTC NOAA

NZOH 150400Z 29024KT 14KM SCT015 BKN025 14/09 Q1009 TEMPO 3000 TSRAGS BKN012 SCT020CB


Station Type Date Time Source
NZOH Decoded METAR 2020/09/15 04:00 UTC NOAA

Ohakea, New Zealand (NZOH) 40-12S 175-22E 52M
Sep 15, 2020 - 12:00 AM EDT / 2020.09.15 0400 UTC
Wind: from the WNW (290 degrees) at 28 MPH (24 KT):0
Sky conditions: mostly cloudy
Weather: Cumulonimbus clouds observed
Temperature: 57 F (14 C)
Dew Point: 48 F (9 C)
Relative Humidity: 71%
Pressure (altimeter): 29.80 in. Hg (1009 hPa)
ob: NZOH 150400Z 29024KT 14KM SCT015 BKN025 14/09 Q1009 TEMPO 3000 TSRAGS BKN012 SCT020CB
cycle: 4

Station Type Date Time Source
NZOH TAF 2007/12/14 04:59 UTC NOAA

TAF NZOH 140459Z 140606 11020KT 30KM SCT080 BECMH 0911 03008KT
BECMG 2224 27012KT

Example: see airport list